Time;durP1;ratioP1;P1;durP2;ratioP2;P2;SDS_P1;SDS_P2;PMS_P1;PMS_P2;Temp;Humidity;BMP_temperature;BMP_pressure;BME280_temperature;BME280_humidity;BME280_pressure;Samples;Min_cycle;Max_cycle;Signal;HPM_P1;HPM_P2
2022/04/11 00:01:28;;;;;;;;;;;2.70;99.90;;;1.44;97.64;96006.69;10461087;28;1758;-70
2022/04/11 00:06:32;;;;;;;;;;;2.60;99.90;;;1.33;97.83;96004.69;10463010;28;2208;-70
2022/04/11 00:11:35;;;;;;;;;;;2.60;99.90;;;1.18;99.13;95996.22;10466332;28;1942;-70
2022/04/11 00:16:39;;;;;;;;;;;2.50;99.90;;;1.08;99.37;95986.88;10467664;28;1875;-70
2022/04/11 00:21:42;;;;;;;;;;;2.40;99.90;;;1.10;99.68;95980.56;10458055;28;1749;-70
2022/04/11 00:26:46;;;;;;;;;;;2.30;99.90;;;0.98;99.46;95981.22;10469638;28;1871;-70
2022/04/11 00:31:48;;;;;;;;;;;2.20;99.90;;;0.88;100.00;95980.81;10466574;28;1906;-70
2022/04/11 00:36:52;;;;;;;;;;;2.20;99.90;;;0.84;100.00;95984.91;10469844;28;1899;-70
2022/04/11 00:41:55;;;;;;;;;;;2.10;99.90;;;0.85;100.00;95986.53;10457507;28;2332;-70
2022/04/11 00:46:58;;;;;;;;;;;2.10;99.90;;;0.81;100.00;95986.13;10467782;28;1875;-70
2022/04/11 00:52:01;;;;;;;;;;;2.10;99.90;;;0.81;100.00;95980.84;10469391;28;1977;-70
2022/04/11 00:57:04;;;;;;;;;;;2.00;99.90;;;0.77;100.00;95979.66;10463069;28;1948;-70
2022/04/11 01:02:07;;;;;;;;;;;2.00;99.90;;;0.94;99.40;95985.28;10473299;28;1914;-70
2022/04/11 01:07:11;;;;;;;;;;;2.00;99.90;;;1.01;99.29;95980.78;10475777;28;1980;-71
2022/04/11 01:12:15;;;;;;;;;;;2.10;99.90;;;0.93;99.34;95983.66;10471620;28;1914;-70
2022/04/11 01:17:18;;;;;;;;;;;2.00;99.90;;;0.87;99.11;95973.91;10473218;28;1970;-70
2022/04/11 01:22:22;;;;;;;;;;;2.10;99.90;;;0.81;99.96;95977.38;10472793;28;1937;-70
2022/04/11 01:27:25;;;;;;;;;;;2.00;99.90;;;0.68;100.00;95988.00;10471523;28;1914;-71
2022/04/11 01:32:29;;;;;;;;;;;1.90;99.90;;;0.63;100.00;95978.03;10464415;28;1999;-69
2022/04/11 01:37:33;;;;;;;;;;;1.90;99.90;;;0.66;100.00;95984.75;10469547;28;2012;-71
2022/04/11 01:42:35;;;;;;;;;;;1.90;99.90;;;0.69;100.00;95984.31;10466291;28;2007;-69
2022/04/11 01:47:40;;;;;;;;;;;1.90;99.90;;;0.64;100.00;95981.50;10472156;28;2018;-70
2022/04/11 01:52:43;;;;;;;;;;;1.90;99.90;;;0.68;99.61;95974.75;10467265;28;1913;-70
2022/04/11 01:57:47;;;;;;;;;;;1.90;99.90;;;0.74;98.53;95973.94;10485209;28;1963;-70
2022/04/11 02:02:52;;;;;;;;;;;1.90;99.90;;;0.73;98.73;95977.59;10465217;28;2173;-70
2022/04/11 02:07:55;;;;;;;;;;;1.90;99.90;;;0.67;98.22;95973.16;10464540;28;2002;-69
2022/04/11 02:12:59;;;;;;;;;;;1.80;99.90;;;0.78;98.31;95964.56;10465308;28;2073;-71
2022/04/11 02:18:03;;;;;;;;;;;1.80;99.90;;;0.81;96.98;95959.66;10469989;28;2058;-71
2022/04/11 02:23:07;;;;;;;;;;;1.90;99.90;;;0.82;96.98;95944.59;10472640;28;1923;-70
2022/04/11 02:28:10;;;;;;;;;;;1.90;99.90;;;0.90;96.44;95943.56;10489890;28;2071;-69
2022/04/11 02:33:13;;;;;;;;;;;2.00;99.90;;;0.96;96.32;95932.16;10479382;28;2053;-70
2022/04/11 02:38:16;;;;;;;;;;;2.10;99.90;;;1.00;95.44;95931.50;10471989;28;1998;-70
2022/04/11 02:43:19;;;;;;;;;;;2.10;99.90;;;0.87;95.98;95942.16;10467739;28;1817;-71
2022/04/11 02:48:22;;;;;;;;;;;2.00;99.90;;;0.86;96.43;95929.13;10462874;28;2066;-70
2022/04/11 02:53:25;;;;;;;;;;;2.00;99.90;;;0.81;96.51;95932.38;10465510;28;1987;-69
2022/04/11 02:58:28;;;;;;;;;;;2.00;99.90;;;0.79;95.83;95919.38;10461104;28;2061;-69
2022/04/11 03:03:32;;;;;;;;;;;2.00;99.90;;;0.76;95.88;95913.69;10459651;28;1959;-70
2022/04/11 03:08:34;;;;;;;;;;;1.90;99.90;;;0.70;96.09;95909.22;10458943;28;1919;-70
2022/04/11 03:13:38;;;;;;;;;;;1.90;99.90;;;0.76;95.86;95919.81;10462313;28;2047;-71
2022/04/11 03:18:42;;;;;;;;;;;1.90;99.90;;;0.73;96.04;95914.09;10464067;28;2094;-70
2022/04/11 03:23:45;;;;;;;;;;;1.90;99.90;;;0.70;96.47;95909.22;10467495;28;1871;-71
2022/04/11 03:28:48;;;;;;;;;;;1.90;99.90;;;0.76;95.21;95908.38;10466793;28;1975;-71
2022/04/11 03:33:51;;;;;;;;;;;1.90;99.90;;;0.79;95.42;95907.97;10463776;28;2151;-69
2022/04/11 03:38:54;;;;;;;;;;;1.90;99.90;;;0.75;94.06;95897.00;10462745;28;1982;-70
2022/04/11 03:43:57;;;;;;;;;;;1.90;99.90;;;0.81;93.62;95901.44;10462467;28;1851;-69
2022/04/11 03:49:00;;;;;;;;;;;1.90;99.90;;;0.83;94.35;95906.56;10463306;28;2003;-71
2022/04/11 03:54:03;;;;;;;;;;;2.00;99.90;;;0.87;94.01;95905.09;10462316;28;1969;-70
2022/04/11 03:59:06;;;;;;;;;;;2.00;99.90;;;0.81;94.23;95901.44;10465058;28;1932;-69
2022/04/11 04:04:10;;;;;;;;;;;2.00;99.90;;;0.79;93.59;95894.75;10466436;28;1947;-70
2022/04/11 04:09:14;;;;;;;;;;;2.00;99.90;;;0.74;93.66;95883.97;10459441;28;1915;-70
2022/04/11 04:14:17;;;;;;;;;;;1.90;99.90;;;0.74;94.00;95883.97;10457926;28;2361;-70
2022/04/11 04:19:21;;;;;;;;;;;1.80;99.90;;;0.78;94.25;95871.97;10463003;28;2003;-70
2022/04/11 04:24:24;;;;;;;;;;;1.90;99.90;;;0.69;95.41;95875.84;10460870;28;1916;-71
2022/04/11 04:29:27;;;;;;;;;;;1.80;99.90;;;0.62;96.34;95860.00;10459062;28;1926;-69
2022/04/11 04:34:30;;;;;;;;;;;1.70;99.90;;;0.47;97.60;95862.91;10465845;28;2412;-69
2022/04/11 04:39:34;;;;;;;;;;;1.60;99.90;;;0.43;97.38;95861.69;10466792;28;1923;-69
2022/04/11 04:44:38;;;;;;;;;;;1.50;99.90;;;0.50;96.81;95862.47;10469671;28;1792;-69
2022/04/11 04:49:41;;;;;;;;;;;1.60;99.90;;;0.59;95.56;95856.97;10470074;28;2217;-70
2022/04/11 04:54:44;;;;;;;;;;;1.60;99.90;;;0.71;94.27;95853.47;10471396;28;1976;-70
2022/04/11 04:59:46;;;;;;;;;;;1.80;99.90;;;0.82;94.44;95852.78;10469655;28;2160;-70
2022/04/11 05:04:50;;;;;;;;;;;1.80;99.90;;;0.86;94.96;95858.47;10467503;28;2008;-71
2022/04/11 05:09:53;;;;;;;;;;;1.90;99.90;;;1.01;94.54;95851.06;10459683;28;2051;-70
2022/04/11 05:14:56;;;;;;;;;;;1.90;99.90;;;1.10;93.55;95856.13;10461928;28;2029;-70
2022/04/11 05:19:59;;;;;;;;;;;2.00;99.90;;;1.38;91.63;95845.16;10464859;28;1966;-69
2022/04/11 05:25:03;;;;;;;;;;;2.20;99.90;;;1.63;89.38;95841.50;10465021;28;2030;-70
2022/04/11 05:30:06;;;;;;;;;;;2.30;99.90;;;1.84;86.80;95839.50;10464908;28;2285;-71
2022/04/11 05:35:10;;;;;;;;;;;2.70;99.90;;;2.21;85.17;95837.72;10478053;28;1969;-70
2022/04/11 05:40:14;;;;;;;;;;;2.90;99.90;;;2.38;82.73;95822.88;10470764;28;1865;-70
2022/04/11 05:45:18;;;;;;;;;;;3.10;99.90;;;2.72;80.95;95828.59;10464831;28;1874;-70
2022/04/11 05:50:21;;;;;;;;;;;3.40;99.90;;;3.25;78.26;95828.75;10464675;28;1931;-71
2022/04/11 05:55:24;;;;;;;;;;;3.80;99.90;;;3.38;76.62;95837.56;10464187;28;1918;-70
2022/04/11 06:00:27;;;;;;;;;;;4.10;99.90;;;3.23;76.24;95841.41;10477409;22;3484;-69
2022/04/11 06:05:31;;;;;;;;;;;4.10;99.90;;;3.18;75.54;95837.81;10496821;28;1926;-68
2022/04/11 06:10:36;;;;;;;;;;;4.10;99.90;;;3.02;75.59;95843.75;10476826;28;2314;-67
2022/04/11 06:15:40;;;;;;;;;;;4.10;99.90;;;3.16;74.88;95843.34;10470512;28;2379;-69
2022/04/11 06:20:45;;;;;;;;;;;4.10;99.90;;;3.40;74.11;95838.13;10483845;28;1902;-70
2022/04/11 06:25:48;;;;;;;;;;;4.20;99.90;;;3.54;73.54;95836.91;10474382;28;1824;-68
2022/04/11 06:30:51;;;;;;;;;;;4.40;99.90;;;3.84;71.78;95836.03;10477275;28;1782;-69
2022/04/11 06:35:54;;;;;;;;;;;4.70;99.90;;;4.15;71.17;95843.69;10476241;28;1984;-70
2022/04/11 06:40:57;;;;;;;;;;;4.90;99.90;;;4.32;69.52;95847.25;10466620;28;1794;-68
2022/04/11 06:46:01;;;;;;;;;;;5.10;99.90;;;4.15;69.43;95853.53;10476505;28;1894;-69
2022/04/11 06:51:05;;;;;;;;;;;5.10;99.90;;;4.50;68.10;95842.84;10475639;28;1875;-69
2022/04/11 06:56:08;;;;;;;;;;;5.20;99.90;;;4.70;67.17;95837.94;10472431;28;1973;-70
2022/04/11 07:01:11;;;;;;;;;;;5.40;99.90;;;5.12;65.79;95829.72;10472340;28;1797;-68
2022/04/11 07:06:15;;;;;;;;;;;5.80;99.90;;;4.80;65.92;95835.50;10470412;28;1801;-69
2022/04/11 07:11:18;;;;;;;;;;;5.80;99.90;;;4.74;66.64;95836.44;10469095;28;2020;-69
2022/04/11 07:16:23;;;;;;;;;;;5.70;99.90;;;5.24;64.58;95840.34;10472953;28;1985;-68
2022/04/11 07:21:25;;;;;;;;;;;6.00;99.90;;;5.24;64.43;95835.81;10463018;28;1956;-69
2022/04/11 07:26:29;;;;;;;;;;;6.00;99.90;;;5.55;63.61;95831.06;10468860;28;1876;-68
2022/04/11 07:31:32;;;;;;;;;;;6.30;99.90;;;5.79;61.78;95821.03;10464033;28;1817;-69
2022/04/11 07:36:35;;;;;;;;;;;6.50;99.90;;;6.33;60.55;95827.50;10466951;28;1917;-67
2022/04/11 07:41:38;;;;;;;;;;;7.00;99.90;;;6.01;61.00;95823.81;10464155;28;1888;-67
2022/04/11 07:46:41;;;;;;;;;;;7.00;99.90;;;6.54;60.34;95836.59;10470771;28;1838;-71
2022/04/11 07:51:45;;;;;;;;;;;;;;;6.92;58.54;95829.63;10466514;28;1836;-68
2022/04/11 07:56:49;;;;;;;;;;;7.70;99.90;;;7.12;57.93;95834.41;10459081;28;1978;-69
2022/04/11 08:01:53;;;;;;;;;;;7.90;99.90;;;7.28;55.97;95834.31;10463405;28;1867;-68
2022/04/11 08:06:56;;;;;;;;;;;8.10;99.90;;;7.45;55.38;95831.56;10471871;28;1982;-69
2022/04/11 08:11:59;;;;;;;;;;;8.40;99.90;;;6.41;57.12;95843.09;10479013;28;1853;-68
2022/04/11 08:17:03;;;;;;;;;;;7.90;99.90;;;5.84;58.59;95845.94;10480304;28;1991;-68
2022/04/11 08:22:06;;;;;;;;;;;7.40;99.90;;;6.43;57.19;95833.00;10479367;28;1822;-69
2022/04/11 08:27:09;;;;;;;;;;;7.40;99.90;;;6.90;56.51;95835.22;10475224;28;1843;-69
2022/04/11 08:32:12;;;;;;;;;;;7.80;99.90;;;6.81;58.23;95834.06;10485937;28;1947;-68
2022/04/11 08:37:15;;;;;;;;;;;7.90;99.90;;;7.30;56.00;95820.69;10490045;28;1977;-69
2022/04/11 08:42:18;;;;;;;;;;;8.20;99.90;;;7.35;55.45;95819.94;10483735;28;1740;-69
2022/04/11 08:47:20;;;;;;;;;;;8.40;99.90;;;7.31;57.17;95811.59;10478779;28;1853;-70
2022/04/11 08:52:24;;;;;;;;;;;8.30;99.90;;;7.24;56.62;95808.34;10479383;28;1901;-68
2022/04/11 08:57:26;;;;;;;;;;;8.60;99.90;;;7.78;56.43;95805.66;10484934;28;1978;-69
2022/04/11 09:02:29;;;;;;;;;;;8.60;99.90;;;7.90;56.12;95808.97;10473489;28;1974;-69
2022/04/11 09:07:32;;;;;;;;;;;8.90;99.90;;;8.08;53.80;95805.91;10476159;28;1845;-70
2022/04/11 09:12:35;;;;;;;;;;;9.20;99.90;;;8.10;52.94;95809.13;10475571;28;1768;-69
2022/04/11 09:17:38;;;;;;;;;;;9.10;99.90;;;8.53;50.71;95801.94;10487233;28;1921;-69
2022/04/11 09:22:41;;;;;;;;;;;9.40;99.90;;;8.01;50.50;95794.56;10486154;28;1709;-69
2022/04/11 09:27:44;;;;;;;;;;;9.20;99.90;;;8.57;51.49;95796.84;10485426;28;1856;-68
2022/04/11 09:32:47;;;;;;;;;;;9.40;99.90;;;8.98;49.34;95792.47;10483507;28;1841;-69
2022/04/11 09:37:50;;;;;;;;;;;9.90;99.90;;;8.52;49.41;95794.94;10474252;28;1984;-68
2022/04/11 09:42:53;;;;;;;;;;;9.80;99.90;;;8.68;49.26;95792.34;10472182;28;1844;-69
2022/04/11 09:47:55;;;;;;;;;;;9.80;99.90;;;8.53;49.18;95791.22;10492812;28;1866;-69
2022/04/11 09:52:59;;;;;;;;;;;9.70;99.90;;;8.50;48.60;95790.91;10483888;28;1889;-70
2022/04/11 09:58:02;;;;;;;;;;;9.60;99.90;;;9.08;47.17;95787.13;10500286;28;1918;-70
2022/04/11 10:03:05;;;;;;;;;;;9.80;99.90;;;9.29;46.28;95792.56;10477361;28;1921;-70
2022/04/11 10:08:08;;;;;;;;;;;10.20;99.90;;;8.78;47.49;95779.81;10480385;28;1833;-71
2022/04/11 10:13:11;;;;;;;;;;;10.00;99.90;;;9.35;46.57;95770.03;10474519;28;1845;-70
2022/04/11 10:18:15;;;;;;;;;;;10.20;99.90;;;9.33;43.83;95773.00;10481602;28;1922;-70
2022/04/11 10:23:18;;;;;;;;;;;10.30;99.90;;;9.26;45.45;95753.66;10479698;28;1913;-70
2022/04/11 10:28:22;;;;;;;;;;;10.30;99.90;;;9.48;44.96;95756.13;10483006;28;1830;-71
2022/04/11 10:33:25;;;;;;;;;;;10.40;99.90;;;9.51;44.85;95757.47;10486508;28;1836;-70
2022/04/11 10:38:28;;;;;;;;;;;10.50;99.90;;;9.04;44.76;95764.63;10481722;28;1979;-69
2022/04/11 10:43:31;;;;;;;;;;;10.50;99.90;;;9.20;44.27;95744.00;10483218;28;1855;-69
2022/04/11 10:48:34;;;;;;;;;;;10.30;99.90;;;9.52;45.24;95740.28;10480195;28;1903;-70
2022/04/11 10:53:37;;;;;;;;;;;10.50;99.90;;;9.48;44.77;95737.34;10485218;28;2034;-72
2022/04/11 10:58:40;;;;;;;;;;;10.90;99.90;;;9.86;46.73;95732.50;10463200;28;2022;-70
2022/04/11 11:03:44;;;;;;;;;;;10.80;99.90;;;10.17;46.00;95717.94;10477354;28;1924;-71
2022/04/11 11:09:01;;;;;;;;;;;11.00;99.90;;;9.75;46.02;95713.72;10472950;28;1786;-70
2022/04/11 11:14:04;;;;;;;;;;;11.10;99.90;;;9.53;46.51;95707.81;10468315;28;1918;-69
2022/04/11 11:19:10;;;;;;;;;;;10.80;99.90;;;9.88;46.40;95700.84;10478754;28;1905;-69
2022/04/11 11:24:14;;;;;;;;;;;10.80;99.90;;;10.25;45.27;95695.94;10476998;28;2145;-68
2022/04/11 11:29:17;;;;;;;;;;;11.40;99.90;;;10.50;44.08;95683.50;10475252;28;1845;-68
2022/04/11 11:34:21;;;;;;;;;;;11.50;99.90;;;10.19;45.07;95678.22;10483075;28;2016;-68
2022/04/11 11:39:25;;;;;;;;;;;11.50;99.90;;;10.30;44.33;95684.38;10476564;28;1791;-68
2022/04/11 11:44:30;;;;;;;;;;;11.50;99.90;;;10.42;43.38;95665.25;10477924;28;1778;-69
2022/04/11 11:49:33;;;;;;;;;;;11.60;99.90;;;10.10;43.60;95668.28;10472097;28;1937;-68
2022/04/11 11:54:36;;;;;;;;;;;11.60;99.90;;;10.09;44.18;95664.78;10475797;28;1945;-70
2022/04/11 11:59:39;;;;;;;;;;;11.30;99.90;;;10.24;43.23;95659.44;10476301;28;1848;-68
2022/04/11 12:04:47;;;;;;;;;;;11.30;99.90;;;10.64;43.11;95659.53;10471987;28;1862;-69
2022/04/11 12:09:50;;;;;;;;;;;11.60;99.90;;;10.58;42.22;95650.69;10469562;28;1873;-70
2022/04/11 12:14:53;;;;;;;;;;;11.70;99.90;;;10.67;41.52;95648.22;10467430;28;1906;-67
2022/04/11 12:19:56;;;;;;;;;;;11.80;99.90;;;10.63;41.36;95650.66;10479450;28;1861;-68
2022/04/11 12:24:59;;;;;;;;;;;11.90;99.90;;;10.66;39.54;95636.66;10470744;28;1924;-67
2022/04/11 12:30:02;;;;;;;;;;;11.90;99.90;;;10.95;39.87;95627.91;10471585;28;1814;-67
2022/04/11 12:35:05;;;;;;;;;;;12.00;99.90;;;11.13;40.85;95621.03;10465908;28;1918;-68
2022/04/11 12:40:08;;;;;;;;;;;12.20;99.90;;;11.24;39.59;95612.59;10465878;28;1928;-68
2022/04/11 12:45:10;;;;;;;;;;;12.30;99.90;;;11.47;37.98;95607.59;10469152;28;1859;-69
2022/04/11 12:50:14;;;;;;;;;;;12.50;99.90;;;11.47;39.17;95594.91;10468987;28;1885;-68
2022/04/11 12:55:17;;;;;;;;;;;12.60;99.90;;;11.61;40.22;95589.66;10497141;28;1890;-69
2022/04/11 13:00:21;;;;;;;;;;;12.60;99.90;;;11.80;40.08;95590.56;10514881;28;1794;-68
2022/04/11 13:05:24;;;;;;;;;;;12.80;99.90;;;11.79;39.47;95572.00;10511183;28;1753;-71
2022/04/11 13:10:35;;;;;;;;;;;12.90;99.90;;;11.71;37.37;95573.44;10517188;28;1834;-68
2022/04/11 13:18:23;;;;;;;;;;;12.80;99.90;;;11.92;37.55;95570.53;10510286;28;1981;-68
2022/04/11 13:21:01;;;;;;;;;;;12.80;99.90;;;11.85;35.12;95571.69;10501620;28;1852;-70
2022/04/11 13:26:05;;;;;;;;;;;12.90;98.60;;;12.15;36.07;95561.63;10507214;28;1796;-69
2022/04/11 13:31:11;;;;;;;;;;;13.00;98.90;;;12.40;35.87;95558.59;10502259;28;1778;-69
2022/04/11 13:36:14;;;;;;;;;;;13.30;98.80;;;12.54;33.66;95542.53;10504534;28;1890;-68
2022/04/11 13:41:17;;;;;;;;;;;13.50;96.20;;;12.50;34.13;95544.19;10492100;28;1865;-68
2022/04/11 13:46:20;;;;;;;;;;;13.50;95.30;;;12.58;34.66;95532.75;10486246;28;1872;-70
2022/04/11 13:51:23;;;;;;;;;;;13.60;95.30;;;12.15;35.48;95519.34;10479479;28;1752;-68
2022/04/11 13:56:46;;;;;;;;;;;13.40;94.90;;;12.49;36.31;95515.63;10483758;28;1889;-68
2022/04/11 14:01:49;;;;;;;;;;;13.50;96.20;;;12.95;33.81;95513.03;10470903;28;1858;-68
2022/04/11 14:06:52;;;;;;;;;;;13.80;94.70;;;12.57;32.87;95506.88;10478178;28;1845;-69
2022/04/11 14:11:56;;;;;;;;;;;13.70;91.10;;;12.85;32.66;95504.28;10457708;28;1845;-67
2022/04/11 14:16:59;;;;;;;;;;;13.70;91.30;;;13.07;32.20;95501.00;10476093;28;1910;-69
2022/04/11 14:22:02;;;;;;;;;;;15.00;91.00;;;12.78;33.68;95485.78;10471424;28;1884;-69
2022/04/11 14:27:05;;;;;;;;;;;14.10;90.70;;;13.20;33.45;95490.25;10476069;28;1804;-68
2022/04/11 14:32:09;;;;;;;;;;;14.10;90.60;;;13.13;32.72;95481.72;10472396;28;1760;-69
2022/04/11 14:37:12;;;;;;;;;;;14.10;89.40;;;12.89;33.29;95473.75;10470560;28;1969;-68
2022/04/11 14:42:15;;;;;;;;;;;14.10;88.60;;;13.21;33.06;95474.84;10470012;28;2084;-69
2022/04/11 14:47:18;;;;;;;;;;;14.10;88.90;;;13.26;33.45;95474.78;10480919;28;1803;-69
2022/04/11 14:52:21;;;;;;;;;;;14.30;89.60;;;13.03;33.50;95462.19;10477792;28;1889;-70
2022/04/11 14:57:32;;;;;;;;;;;14.20;89.10;;;13.27;33.52;95452.06;10458863;28;2157;-70
2022/04/11 15:02:35;;;;;;;;;;;14.20;88.70;;;13.10;33.15;95452.59;10484574;28;2146;-71
2022/04/11 15:07:38;;;;;;;;;;;14.20;87.40;;;13.19;33.29;95439.25;10467965;28;3236;-66
2022/04/11 15:12:41;;;;;;;;;;;14.20;87.70;;;13.27;32.35;95441.28;10457539;28;2297;-69
2022/04/11 15:17:44;;;;;;;;;;;14.20;87.00;;;13.20;32.06;95440.84;10473811;28;1914;-69
2022/04/11 15:22:46;;;;;;;;;;;14.30;85.40;;;13.25;32.53;95430.00;10470177;28;2451;-68
2022/04/11 15:27:55;;;;;;;;;;;14.20;85.90;;;13.38;33.04;95426.50;10463357;28;1822;-67
2022/04/11 15:33:02;;;;;;;;;;;14.30;86.90;;;13.11;35.53;95426.44;10468370;28;1839;-67
2022/04/11 15:38:05;;;;;;;;;;;14.30;88.80;;;12.79;35.58;95422.69;10479799;28;2269;-66
2022/04/11 15:43:08;;;;;;;;;;;14.10;89.00;;;12.72;38.45;95422.25;10464275;28;1845;-67
2022/04/11 15:48:11;;;;;;;;;;;13.80;92.00;;;12.56;38.90;95420.91;10477700;28;1987;-66
2022/04/11 15:53:13;;;;;;;;;;;13.70;92.50;;;12.55;39.00;95430.91;10469813;28;1883;-68
2022/04/11 15:58:16;;;;;;;;;;;13.70;92.70;;;12.29;39.58;95437.78;10478454;28;1902;-68
2022/04/11 16:03:19;;;;;;;;;;;13.50;93.10;;;12.20;38.77;95432.22;10475371;28;1852;-68
2022/04/11 16:08:22;;;;;;;;;;;13.30;93.30;;;12.10;39.27;95429.69;10479877;28;1755;-68
2022/04/11 16:13:26;;;;;;;;;;;13.20;93.30;;;12.15;39.90;95437.69;10473377;28;1830;-68
2022/04/11 16:18:29;;;;;;;;;;;13.20;93.80;;;12.00;39.14;95435.22;10472014;28;1967;-68
2022/04/11 16:23:33;;;;;;;;;;;13.10;93.00;;;11.95;38.75;95435.28;10472542;28;1823;-68
2022/04/11 16:28:36;;;;;;;;;;;13.00;92.80;;;11.81;38.90;95441.38;10467718;28;1899;-66
2022/04/11 16:33:39;;;;;;;;;;;12.90;92.70;;;11.73;40.21;95436.59;10466424;28;1881;-66
2022/04/11 16:38:43;;;;;;;;;;;12.90;93.50;;;11.75;41.05;95434.41;10486117;28;2329;-67
2022/04/11 16:43:46;;;;;;;;;;;12.80;94.60;;;11.63;42.10;95436.72;10471450;28;1849;-68
2022/04/11 16:48:49;;;;;;;;;;;12.70;95.90;;;11.57;42.61;95443.25;10489135;28;1811;-67
2022/04/11 16:53:52;;;;;;;;;;;12.60;96.80;;;11.44;43.67;95444.75;10482637;28;1811;-65
2022/04/11 16:58:55;;;;;;;;;;;12.50;97.60;;;11.28;44.87;95446.81;10487586;28;1919;-68
2022/04/11 17:03:58;;;;;;;;;;;12.40;98.40;;;11.16;46.48;95449.09;10475751;28;1903;-68
2022/04/11 17:09:01;;;;;;;;;;;12.30;99.90;;;10.94;48.59;95443.38;10479992;28;1799;-67
2022/04/11 17:14:04;;;;;;;;;;;12.10;99.90;;;10.81;49.94;95451.06;10478158;28;1752;-67
2022/04/11 17:19:08;;;;;;;;;;;12.00;99.90;;;10.71;51.05;95443.06;10471266;28;2204;-67
2022/04/11 17:24:10;;;;;;;;;;;11.90;99.90;;;10.57;51.04;95444.81;10466924;28;1832;-68
2022/04/11 17:29:14;;;;;;;;;;;11.70;99.90;;;10.45;51.37;95460.50;10477052;28;1816;-69
2022/04/11 17:34:17;;;;;;;;;;;11.60;99.90;;;10.29;51.51;95447.16;10468633;28;1910;-70
2022/04/11 17:39:20;;;;;;;;;;;11.40;99.90;;;10.12;53.05;95454.78;10469126;28;1902;-68
2022/04/11 17:44:23;;;;;;;;;;;11.30;99.90;;;9.98;53.54;95459.13;10474032;28;1911;-70
2022/04/11 17:49:26;;;;;;;;;;;11.20;99.90;;;9.84;54.54;95458.13;10478610;28;1830;-69
2022/04/11 17:54:29;;;;;;;;;;;11.00;99.90;;;9.69;54.90;95465.19;10470797;28;2006;-71
2022/04/11 17:59:33;;;;;;;;;;;;;;;9.57;55.52;95456.66;10462917;28;1981;-72
2022/04/11 18:04:36;;;;;;;;;;;;;;;9.45;56.18;95467.69;10470546;28;1823;-69
2022/04/11 18:09:39;;;;;;;;;;;10.40;99.90;;;9.34;56.85;95470.66;10474046;28;1802;-68
2022/04/11 18:14:42;;;;;;;;;;;10.30;99.90;;;9.13;57.81;95473.41;10482524;28;1848;-68
2022/04/11 18:19:45;;;;;;;;;;;10.20;99.90;;;9.05;57.79;95476.66;10481304;28;1983;-70
2022/04/11 18:24:48;;;;;;;;;;;10.10;99.90;;;8.87;58.59;95485.25;10470465;28;1943;-71
2022/04/11 18:35:11;;;;;;;;;;;9.90;99.90;;;8.69;59.17;95478.56;10472168;28;1818;-69
2022/04/11 18:40:16;;;;;;;;;;;9.80;99.90;;;8.56;60.31;95492.47;10466591;28;1997;-68
2022/04/11 18:45:18;;;;;;;;;;;9.50;99.90;;;8.47;60.21;95499.47;10472874;28;1732;-69
2022/04/11 18:50:21;;;;;;;;;;;9.60;99.90;;;8.39;60.68;95498.88;10479101;28;1841;-71
2022/04/11 18:55:24;;;;;;;;;;;9.40;99.90;;;8.28;61.68;95499.94;10468104;28;1910;-69
2022/04/11 19:00:27;;;;;;;;;;;9.40;99.90;;;8.19;62.44;95500.72;10467504;28;1976;-69
2022/04/11 19:05:30;;;;;;;;;;;9.20;99.90;;;8.07;63.11;95491.03;10462783;28;1899;-70
2022/04/11 19:10:33;;;;;;;;;;;9.10;99.90;;;8.03;63.23;95498.00;10464278;28;1856;-70
2022/04/11 19:15:36;;;;;;;;;;;9.00;99.90;;;7.94;63.85;95504.91;10473948;28;1851;-70
2022/04/11 19:20:39;;;;;;;;;;;9.00;99.90;;;7.82;64.73;95507.03;10460684;28;1922;-71
2022/04/11 19:25:43;;;;;;;;;;;8.90;99.90;;;7.72;65.38;95517.69;10470832;28;1918;-70
2022/04/11 19:30:52;;;;;;;;;;;8.80;99.90;;;7.62;65.45;95517.66;10471566;28;1821;-69
2022/04/11 19:35:55;;;;;;;;;;;8.70;99.90;;;7.31;66.84;95520.97;10469245;28;1866;-70
2022/04/11 19:40:58;;;;;;;;;;;8.50;99.90;;;7.29;67.96;95514.28;10468839;28;1980;-71
2022/04/11 19:46:01;;;;;;;;;;;8.30;99.90;;;7.29;67.99;95507.06;10467353;28;1863;-71
2022/04/11 19:51:04;;;;;;;;;;;8.30;99.90;;;7.42;66.69;95510.34;10472809;28;1865;-70
2022/04/11 19:56:08;;;;;;;;;;;8.30;99.90;;;7.25;67.73;95503.31;10471803;28;1791;-71
2022/04/11 20:01:11;;;;;;;;;;;8.30;99.90;;;7.17;68.48;95508.31;10466648;28;1913;-69
2022/04/11 20:06:15;;;;;;;;;;;8.30;99.90;;;6.99;68.57;95509.53;10461973;28;1936;-71
2022/04/11 20:11:22;;;;;;;;;;;8.10;99.90;;;7.00;68.42;95514.66;10466242;28;1802;-71
2022/04/11 20:16:25;;;;;;;;;;;8.00;99.90;;;7.02;67.61;95515.19;10464201;28;2110;-70
2022/04/11 20:21:28;;;;;;;;;;;8.00;99.90;;;6.94;68.28;95507.66;10465401;28;1813;-70
2022/04/11 20:26:31;;;;;;;;;;;8.10;99.90;;;6.96;67.65;95505.53;10468547;28;1905;-70
2022/04/11 20:31:34;;;;;;;;;;;8.00;99.90;;;6.88;67.77;95503.34;10469104;28;1857;-69
2022/04/11 20:36:38;;;;;;;;;;;7.90;99.90;;;6.89;67.35;95498.78;10469608;28;1906;-68
2022/04/11 20:41:41;;;;;;;;;;;7.90;99.90;;;6.75;68.05;95498.44;10467936;28;1771;-69
2022/04/11 20:46:44;;;;;;;;;;;7.80;99.90;;;6.66;68.01;95494.59;10470677;28;1873;-69
2022/04/11 20:51:48;;;;;;;;;;;7.70;99.90;;;6.56;68.98;95508.69;10474062;28;1741;-69
2022/04/11 20:56:50;;;;;;;;;;;7.60;99.90;;;6.47;69.60;95505.66;10523079;28;1939;-70
2022/04/11 21:01:53;;;;;;;;;;;7.50;99.90;;;6.38;70.16;95509.06;10524134;28;1853;-70
2022/04/11 21:06:57;;;;;;;;;;;7.50;99.90;;;6.23;70.83;95507.03;10514138;28;1883;-72
2022/04/11 21:12:00;;;;;;;;;;;7.40;99.90;;;6.22;70.27;95505.44;10516051;28;1828;-68
2022/04/11 21:17:03;;;;;;;;;;;7.30;99.90;;;6.18;70.06;95505.16;10512345;28;1961;-70
2022/04/11 21:22:06;;;;;;;;;;;7.10;99.90;;;6.06;70.34;95503.69;10528008;28;1881;-68
2022/04/11 21:27:10;;;;;;;;;;;7.10;99.90;;;5.93;71.39;95503.03;10516340;28;1844;-71
2022/04/11 21:32:12;;;;;;;;;;;7.00;99.90;;;5.88;71.44;95515.47;10482264;28;1829;-70
2022/04/11 21:37:15;;;;;;;;;;;6.90;99.90;;;5.86;71.65;95505.06;10478029;28;1918;-69
2022/04/11 21:42:18;;;;;;;;;;;6.90;99.90;;;5.86;71.51;95507.72;10469609;28;1816;-71
2022/04/11 21:47:21;;;;;;;;;;;6.90;99.90;;;5.79;71.90;95507.13;10481262;28;1839;-71
2022/04/11 21:52:24;;;;;;;;;;;6.90;99.90;;;5.64;72.65;95509.59;10474590;28;1846;-68
2022/04/11 21:57:26;;;;;;;;;;;6.80;99.90;;;5.41;74.23;95506.13;10478410;28;2096;-69
2022/04/11 22:07:47;;;;;;;;;;;6.60;99.90;;;5.17;76.34;95515.41;10469604;28;1822;-70
2022/04/11 22:12:50;;;;;;;;;;;6.40;99.90;;;5.09;76.99;95523.78;10476890;28;1850;-69
2022/04/11 22:17:53;;;;;;;;;;;6.40;99.90;;;5.00;77.73;95519.94;10479012;28;1985;-69
2022/04/11 22:22:56;;;;;;;;;;;6.20;99.90;;;4.91;78.82;95532.88;10469620;28;1847;-68
2022/04/11 22:27:59;;;;;;;;;;;6.10;99.90;;;4.78;78.85;95527.88;10470576;28;1724;-69
2022/04/11 22:33:02;;;;;;;;;;;6.10;99.90;;;4.70;79.86;95526.41;10477812;28;1850;-71
2022/04/11 22:38:05;;;;;;;;;;;5.90;99.90;;;4.68;81.45;95533.84;10474250;28;1998;-69
2022/04/11 22:43:07;;;;;;;;;;;5.90;99.90;;;4.60;82.04;95532.41;10477062;28;1798;-71
2022/04/11 22:48:10;;;;;;;;;;;5.90;99.90;;;4.61;82.29;95527.88;10489215;28;1706;-70
2022/04/11 22:53:13;;;;;;;;;;;5.80;99.90;;;4.54;82.22;95521.91;10471570;28;1745;-69
2022/04/11 22:58:16;;;;;;;;;;;5.70;99.90;;;4.72;81.77;95512.88;10462761;28;1973;-70
2022/04/11 23:03:19;;;;;;;;;;;5.70;99.90;;;4.68;81.63;95522.38;10474435;28;1830;-70
2022/04/11 23:08:21;;;;;;;;;;;5.80;99.90;;;4.54;82.13;95514.72;10477588;28;1847;-70
2022/04/11 23:13:24;;;;;;;;;;;5.70;99.90;;;4.51;82.67;95506.41;10473975;28;1799;-68
2022/04/11 23:18:27;;;;;;;;;;;5.70;99.90;;;4.43;83.59;95504.94;10480887;28;1914;-70
2022/04/11 23:23:30;;;;;;;;;;;5.60;99.90;;;4.51;82.33;95507.22;10478386;28;1786;-69
2022/04/11 23:28:33;;;;;;;;;;;5.60;99.90;;;4.34;83.77;95512.53;10478117;28;1826;-71
2022/04/11 23:33:36;;;;;;;;;;;5.60;99.90;;;4.24;84.71;95523.00;10475733;28;1800;-71
2022/04/11 23:38:38;;;;;;;;;;;5.50;99.90;;;4.21;85.22;95507.53;10472668;28;1914;-68
2022/04/11 23:43:41;;;;;;;;;;;5.40;99.90;;;4.24;85.14;95501.72;10468493;28;1825;-71
2022/04/11 23:48:44;;;;;;;;;;;5.40;99.90;;;4.31;84.95;95496.22;10474679;28;1937;-69